sensor_id;sensor_type;location;lat;lon;timestamp;P1;durP1;ratioP1;P2;durP2;ratioP2
30872;SDS011;17579;42.690;2.586;2023-08-06T00:01:08;0.70;;;0.70;;
30872;SDS011;17579;42.690;2.586;2023-08-06T00:03:34;1.00;;;0.80;;
30872;SDS011;17579;42.690;2.586;2023-08-06T00:05:59;0.70;;;0.70;;
30872;SDS011;17579;42.690;2.586;2023-08-06T00:08:25;0.73;;;0.70;;
30872;SDS011;17579;42.690;2.586;2023-08-06T00:10:53;0.80;;;0.80;;
30872;SDS011;17579;42.690;2.586;2023-08-06T00:13:21;1.92;;;0.80;;
30872;SDS011;17579;42.690;2.586;2023-08-06T00:15:46;1.55;;;1.00;;
30872;SDS011;17579;42.690;2.586;2023-08-06T00:18:12;1.02;;;0.80;;
30872;SDS011;17579;42.690;2.586;2023-08-06T00:20:41;1.00;;;0.80;;
30872;SDS011;17579;42.690;2.586;2023-08-06T00:23:09;1.90;;;1.08;;
30872;SDS011;17579;42.690;2.586;2023-08-06T00:25:34;0.80;;;0.70;;
30872;SDS011;17579;42.690;2.586;2023-08-06T00:28:00;1.13;;;1.00;;
30872;SDS011;17579;42.690;2.586;2023-08-06T00:30:25;1.13;;;0.80;;
30872;SDS011;17579;42.690;2.586;2023-08-06T00:32:58;2.60;;;1.00;;
30872;SDS011;17579;42.690;2.586;2023-08-06T00:35:27;0.80;;;0.77;;
30872;SDS011;17579;42.690;2.586;2023-08-06T00:37:53;1.08;;;0.80;;
30872;SDS011;17579;42.690;2.586;2023-08-06T00:40:19;1.48;;;0.90;;
30872;SDS011;17579;42.690;2.586;2023-08-06T00:42:49;0.77;;;0.77;;
30872;SDS011;17579;42.690;2.586;2023-08-06T00:45:17;1.17;;;0.90;;
30872;SDS011;17579;42.690;2.586;2023-08-06T00:47:43;0.90;;;0.90;;
30872;SDS011;17579;42.690;2.586;2023-08-06T00:50:14;0.82;;;0.65;;
30872;SDS011;17579;42.690;2.586;2023-08-06T00:52:44;0.73;;;0.73;;
30872;SDS011;17579;42.690;2.586;2023-08-06T00:55:09;0.70;;;0.70;;
30872;SDS011;17579;42.690;2.586;2023-08-06T00:57:35;0.65;;;0.63;;
30872;SDS011;17579;42.690;2.586;2023-08-06T01:00:11;0.75;;;0.73;;
30872;SDS011;17579;42.690;2.586;2023-08-06T01:02:40;0.82;;;0.73;;
30872;SDS011;17579;42.690;2.586;2023-08-06T01:05:13;1.00;;;0.90;;
30872;SDS011;17579;42.690;2.586;2023-08-06T01:07:44;0.75;;;0.70;;
30872;SDS011;17579;42.690;2.586;2023-08-06T01:15:31;1.33;;;0.95;;
30872;SDS011;17579;42.690;2.586;2023-08-06T01:18:04;1.00;;;0.90;;
30872;SDS011;17579;42.690;2.586;2023-08-06T01:20:41;1.23;;;0.70;;
30872;SDS011;17579;42.690;2.586;2023-08-06T01:23:07;0.60;;;0.60;;
30872;SDS011;17579;42.690;2.586;2023-08-06T01:25:34;0.80;;;0.80;;
30872;SDS011;17579;42.690;2.586;2023-08-06T01:28:11;0.98;;;0.75;;
30872;SDS011;17579;42.690;2.586;2023-08-06T01:31:10;0.82;;;0.82;;
30872;SDS011;17579;42.690;2.586;2023-08-06T01:33:47;1.00;;;0.90;;
30872;SDS011;17579;42.690;2.586;2023-08-06T01:36:23;0.90;;;0.75;;
30872;SDS011;17579;42.690;2.586;2023-08-06T01:38:54;1.23;;;0.70;;
30872;SDS011;17579;42.690;2.586;2023-08-06T01:41:22;1.02;;;0.93;;
30872;SDS011;17579;42.690;2.586;2023-08-06T01:43:48;1.30;;;0.90;;
30872;SDS011;17579;42.690;2.586;2023-08-06T01:46:37;1.25;;;0.90;;
30872;SDS011;17579;42.690;2.586;2023-08-06T01:49:03;1.02;;;0.90;;
30872;SDS011;17579;42.690;2.586;2023-08-06T01:51:28;1.20;;;0.98;;
30872;SDS011;17579;42.690;2.586;2023-08-06T01:54:02;1.55;;;1.10;;
30872;SDS011;17579;42.690;2.586;2023-08-06T01:56:36;0.80;;;0.80;;
30872;SDS011;17579;42.690;2.586;2023-08-06T01:59:09;1.90;;;0.95;;
30872;SDS011;17579;42.690;2.586;2023-08-06T02:01:35;1.20;;;1.10;;
30872;SDS011;17579;42.690;2.586;2023-08-06T02:04:01;1.15;;;1.05;;
30872;SDS011;17579;42.690;2.586;2023-08-06T02:06:29;2.30;;;1.00;;
30872;SDS011;17579;42.690;2.586;2023-08-06T02:08:55;2.13;;;1.25;;
30872;SDS011;17579;42.690;2.586;2023-08-06T02:11:21;2.50;;;1.02;;
30872;SDS011;17579;42.690;2.586;2023-08-06T02:13:46;1.45;;;1.00;;
30872;SDS011;17579;42.690;2.586;2023-08-06T02:16:17;3.83;;;1.10;;
30872;SDS011;17579;42.690;2.586;2023-08-06T02:18:50;1.08;;;0.90;;
30872;SDS011;17579;42.690;2.586;2023-08-06T02:21:16;1.73;;;1.00;;
30872;SDS011;17579;42.690;2.586;2023-08-06T02:23:41;1.35;;;1.17;;
30872;SDS011;17579;42.690;2.586;2023-08-06T02:26:12;2.45;;;1.20;;
30872;SDS011;17579;42.690;2.586;2023-08-06T02:28:43;1.15;;;1.05;;
30872;SDS011;17579;42.690;2.586;2023-08-06T02:31:09;0.80;;;0.80;;
30872;SDS011;17579;42.690;2.586;2023-08-06T02:33:40;1.17;;;1.08;;
30872;SDS011;17579;42.690;2.586;2023-08-06T02:36:18;0.80;;;0.80;;
30872;SDS011;17579;42.690;2.586;2023-08-06T02:38:44;1.88;;;0.77;;
30872;SDS011;17579;42.690;2.586;2023-08-06T02:41:10;1.80;;;0.88;;
30872;SDS011;17579;42.690;2.586;2023-08-06T02:43:41;1.88;;;0.82;;
30872;SDS011;17579;42.690;2.586;2023-08-06T02:46:09;0.93;;;0.73;;
30872;SDS011;17579;42.690;2.586;2023-08-06T02:48:37;0.70;;;0.70;;
30872;SDS011;17579;42.690;2.586;2023-08-06T02:51:02;0.68;;;0.68;;
30872;SDS011;17579;42.690;2.586;2023-08-06T02:53:28;1.35;;;0.70;;
30872;SDS011;17579;42.690;2.586;2023-08-06T02:55:54;0.75;;;0.75;;
30872;SDS011;17579;42.690;2.586;2023-08-06T02:58:20;0.82;;;0.60;;
30872;SDS011;17579;42.690;2.586;2023-08-06T03:03:33;0.70;;;0.70;;
30872;SDS011;17579;42.690;2.586;2023-08-06T03:06:17;0.50;;;0.50;;
30872;SDS011;17579;42.690;2.586;2023-08-06T03:08:45;1.73;;;0.90;;
30872;SDS011;17579;42.690;2.586;2023-08-06T03:11:18;1.88;;;0.90;;
30872;SDS011;17579;42.690;2.586;2023-08-06T03:13:44;0.60;;;0.60;;
30872;SDS011;17579;42.690;2.586;2023-08-06T03:16:09;0.63;;;0.52;;
30872;SDS011;17579;42.690;2.586;2023-08-06T03:18:46;0.80;;;0.80;;
30872;SDS011;17579;42.690;2.586;2023-08-06T03:21:14;0.65;;;0.60;;
30872;SDS011;17579;42.690;2.586;2023-08-06T03:23:50;0.70;;;0.70;;
30872;SDS011;17579;42.690;2.586;2023-08-06T03:26:24;0.65;;;0.60;;
30872;SDS011;17579;42.690;2.586;2023-08-06T03:28:50;0.60;;;0.60;;
30872;SDS011;17579;42.690;2.586;2023-08-06T03:31:15;1.17;;;0.60;;
30872;SDS011;17579;42.690;2.586;2023-08-06T03:33:41;0.93;;;0.82;;
30872;SDS011;17579;42.690;2.586;2023-08-06T03:36:06;0.60;;;0.60;;
30872;SDS011;17579;42.690;2.586;2023-08-06T03:38:35;0.50;;;0.50;;
30872;SDS011;17579;42.690;2.586;2023-08-06T03:41:00;0.65;;;0.52;;
30872;SDS011;17579;42.690;2.586;2023-08-06T03:43:29;0.80;;;0.63;;
30872;SDS011;17579;42.690;2.586;2023-08-06T03:45:55;0.65;;;0.50;;
30872;SDS011;17579;42.690;2.586;2023-08-06T03:48:28;0.40;;;0.40;;
30872;SDS011;17579;42.690;2.586;2023-08-06T03:50:56;0.40;;;0.40;;
30872;SDS011;17579;42.690;2.586;2023-08-06T03:53:28;0.40;;;0.40;;
30872;SDS011;17579;42.690;2.586;2023-08-06T03:56:14;0.50;;;0.50;;
30872;SDS011;17579;42.690;2.586;2023-08-06T03:58:40;1.00;;;0.50;;
30872;SDS011;17579;42.690;2.586;2023-08-06T04:01:06;0.57;;;0.57;;
30872;SDS011;17579;42.690;2.586;2023-08-06T04:03:42;0.60;;;0.60;;
30872;SDS011;17579;42.690;2.586;2023-08-06T04:06:07;0.70;;;0.70;;
30872;SDS011;17579;42.690;2.586;2023-08-06T04:08:43;1.35;;;0.60;;
30872;SDS011;17579;42.690;2.586;2023-08-06T04:11:08;1.10;;;0.70;;
30872;SDS011;17579;42.690;2.586;2023-08-06T04:13:34;0.70;;;0.70;;
30872;SDS011;17579;42.690;2.586;2023-08-06T04:16:07;0.63;;;0.63;;
30872;SDS011;17579;42.690;2.586;2023-08-06T04:18:33;1.23;;;0.77;;
30872;SDS011;17579;42.690;2.586;2023-08-06T04:20:59;0.60;;;0.60;;
30872;SDS011;17579;42.690;2.586;2023-08-06T04:23:26;0.68;;;0.60;;
30872;SDS011;17579;42.690;2.586;2023-08-06T04:25:56;0.70;;;0.57;;
30872;SDS011;17579;42.690;2.586;2023-08-06T04:28:22;0.60;;;0.60;;
30872;SDS011;17579;42.690;2.586;2023-08-06T04:30:48;1.08;;;0.52;;
30872;SDS011;17579;42.690;2.586;2023-08-06T04:33:13;0.85;;;0.80;;
30872;SDS011;17579;42.690;2.586;2023-08-06T04:35:39;1.63;;;0.80;;
30872;SDS011;17579;42.690;2.586;2023-08-06T04:38:05;0.98;;;0.88;;
30872;SDS011;17579;42.690;2.586;2023-08-06T04:40:32;0.85;;;0.85;;
30872;SDS011;17579;42.690;2.586;2023-08-06T04:42:59;0.98;;;0.85;;
30872;SDS011;17579;42.690;2.586;2023-08-06T04:45:25;1.45;;;0.82;;
30872;SDS011;17579;42.690;2.586;2023-08-06T04:47:51;2.10;;;0.75;;
30872;SDS011;17579;42.690;2.586;2023-08-06T04:50:17;0.98;;;0.88;;
30872;SDS011;17579;42.690;2.586;2023-08-06T04:52:49;1.30;;;0.80;;
30872;SDS011;17579;42.690;2.586;2023-08-06T04:55:14;1.52;;;0.90;;
30872;SDS011;17579;42.690;2.586;2023-08-06T04:57:42;2.25;;;1.20;;
30872;SDS011;17579;42.690;2.586;2023-08-06T05:00:21;2.55;;;1.30;;
30872;SDS011;17579;42.690;2.586;2023-08-06T05:02:47;1.08;;;0.98;;
30872;SDS011;17579;42.690;2.586;2023-08-06T05:05:13;1.10;;;1.00;;
30872;SDS011;17579;42.690;2.586;2023-08-06T05:07:45;1.73;;;1.25;;
30872;SDS011;17579;42.690;2.586;2023-08-06T05:10:25;1.80;;;1.15;;
30872;SDS011;17579;42.690;2.586;2023-08-06T05:13:02;1.13;;;0.95;;
30872;SDS011;17579;42.690;2.586;2023-08-06T05:18:23;2.20;;;1.40;;
30872;SDS011;17579;42.690;2.586;2023-08-06T05:20:51;2.15;;;1.40;;
30872;SDS011;17579;42.690;2.586;2023-08-06T05:23:17;1.90;;;1.30;;
30872;SDS011;17579;42.690;2.586;2023-08-06T05:26:03;1.80;;;1.48;;
30872;SDS011;17579;42.690;2.586;2023-08-06T05:28:29;1.50;;;1.38;;
30872;SDS011;17579;42.690;2.586;2023-08-06T05:30:57;1.67;;;1.50;;
30872;SDS011;17579;42.690;2.586;2023-08-06T05:33:22;3.15;;;1.80;;
30872;SDS011;17579;42.690;2.586;2023-08-06T05:35:51;3.40;;;1.85;;
30872;SDS011;17579;42.690;2.586;2023-08-06T05:38:24;2.67;;;1.70;;
30872;SDS011;17579;42.690;2.586;2023-08-06T05:40:57;4.13;;;1.77;;
30872;SDS011;17579;42.690;2.586;2023-08-06T05:43:23;3.05;;;1.60;;
30872;SDS011;17579;42.690;2.586;2023-08-06T05:46:01;2.83;;;1.77;;
30872;SDS011;17579;42.690;2.586;2023-08-06T05:48:26;3.53;;;1.65;;
30872;SDS011;17579;42.690;2.586;2023-08-06T05:50:53;3.03;;;1.70;;
30872;SDS011;17579;42.690;2.586;2023-08-06T05:53:18;4.13;;;2.00;;
30872;SDS011;17579;42.690;2.586;2023-08-06T05:55:47;4.32;;;1.98;;
30872;SDS011;17579;42.690;2.586;2023-08-06T05:58:22;5.72;;;2.15;;
30872;SDS011;17579;42.690;2.586;2023-08-06T06:00:51;5.88;;;2.05;;
30872;SDS011;17579;42.690;2.586;2023-08-06T06:03:17;3.10;;;1.88;;
30872;SDS011;17579;42.690;2.586;2023-08-06T06:05:42;3.83;;;1.88;;
30872;SDS011;17579;42.690;2.586;2023-08-06T06:08:18;3.92;;;1.70;;
30872;SDS011;17579;42.690;2.586;2023-08-06T06:10:44;3.72;;;1.60;;
30872;SDS011;17579;42.690;2.586;2023-08-06T06:13:10;5.45;;;2.13;;
30872;SDS011;17579;42.690;2.586;2023-08-06T06:15:35;4.72;;;2.13;;
30872;SDS011;17579;42.690;2.586;2023-08-06T06:18:04;4.45;;;1.70;;
30872;SDS011;17579;42.690;2.586;2023-08-06T06:20:31;3.47;;;1.30;;
30872;SDS011;17579;42.690;2.586;2023-08-06T06:23:00;3.50;;;1.58;;
30872;SDS011;17579;42.690;2.586;2023-08-06T06:25:25;4.30;;;1.70;;
30872;SDS011;17579;42.690;2.586;2023-08-06T06:27:51;6.18;;;1.50;;
30872;SDS011;17579;42.690;2.586;2023-08-06T06:30:20;3.88;;;1.60;;
30872;SDS011;17579;42.690;2.586;2023-08-06T06:32:45;4.32;;;1.90;;
30872;SDS011;17579;42.690;2.586;2023-08-06T06:35:14;3.58;;;1.70;;
30872;SDS011;17579;42.690;2.586;2023-08-06T06:38:03;3.97;;;1.83;;
30872;SDS011;17579;42.690;2.586;2023-08-06T06:40:29;3.40;;;1.80;;
30872;SDS011;17579;42.690;2.586;2023-08-06T06:43:03;5.90;;;1.65;;
30872;SDS011;17579;42.690;2.586;2023-08-06T06:45:32;8.68;;;2.15;;
30872;SDS011;17579;42.690;2.586;2023-08-06T06:48:01;3.22;;;1.88;;
30872;SDS011;17579;42.690;2.586;2023-08-06T06:50:29;3.33;;;1.52;;
30872;SDS011;17579;42.690;2.586;2023-08-06T06:52:55;4.18;;;2.00;;
30872;SDS011;17579;42.690;2.586;2023-08-06T06:55:21;4.97;;;1.90;;
30872;SDS011;17579;42.690;2.586;2023-08-06T06:57:57;5.32;;;1.85;;
30872;SDS011;17579;42.690;2.586;2023-08-06T07:00:22;5.10;;;1.95;;
30872;SDS011;17579;42.690;2.586;2023-08-06T07:02:51;4.05;;;1.85;;
30872;SDS011;17579;42.690;2.586;2023-08-06T07:05:26;3.08;;;1.48;;
30872;SDS011;17579;42.690;2.586;2023-08-06T07:07:52;4.25;;;1.80;;
30872;SDS011;17579;42.690;2.586;2023-08-06T07:10:38;4.10;;;2.00;;
30872;SDS011;17579;42.690;2.586;2023-08-06T07:13:08;2.75;;;1.60;;
30872;SDS011;17579;42.690;2.586;2023-08-06T07:15:37;3.53;;;1.70;;
30872;SDS011;17579;42.690;2.586;2023-08-06T07:18:06;4.13;;;1.90;;
30872;SDS011;17579;42.690;2.586;2023-08-06T07:20:31;2.65;;;1.80;;
30872;SDS011;17579;42.690;2.586;2023-08-06T07:23:09;2.55;;;1.60;;
30872;SDS011;17579;42.690;2.586;2023-08-06T07:25:35;4.70;;;2.38;;
30872;SDS011;17579;42.690;2.586;2023-08-06T07:28:03;2.78;;;1.50;;
30872;SDS011;17579;42.690;2.586;2023-08-06T07:33:07;4.78;;;1.92;;
30872;SDS011;17579;42.690;2.586;2023-08-06T07:35:37;3.67;;;2.05;;
30872;SDS011;17579;42.690;2.586;2023-08-06T07:40:49;3.35;;;1.83;;
30872;SDS011;17579;42.690;2.586;2023-08-06T07:43:17;4.45;;;1.80;;
30872;SDS011;17579;42.690;2.586;2023-08-06T07:45:53;4.80;;;1.73;;
30872;SDS011;17579;42.690;2.586;2023-08-06T07:48:22;2.45;;;1.35;;
30872;SDS011;17579;42.690;2.586;2023-08-06T07:50:51;4.55;;;1.27;;
30872;SDS011;17579;42.690;2.586;2023-08-06T07:53:20;5.55;;;1.98;;
30872;SDS011;17579;42.690;2.586;2023-08-06T07:55:48;4.10;;;2.10;;
30872;SDS011;17579;42.690;2.586;2023-08-06T07:58:15;5.40;;;1.95;;
30872;SDS011;17579;42.690;2.586;2023-08-06T08:01:07;4.60;;;1.77;;
30872;SDS011;17579;42.690;2.586;2023-08-06T08:03:32;3.47;;;1.92;;
30872;SDS011;17579;42.690;2.586;2023-08-06T08:05:58;3.83;;;2.00;;
30872;SDS011;17579;42.690;2.586;2023-08-06T08:08:26;4.95;;;1.75;;
30872;SDS011;17579;42.690;2.586;2023-08-06T08:11:12;4.00;;;1.67;;
30872;SDS011;17579;42.690;2.586;2023-08-06T08:13:43;2.25;;;1.52;;
30872;SDS011;17579;42.690;2.586;2023-08-06T08:16:09;2.45;;;1.52;;
30872;SDS011;17579;42.690;2.586;2023-08-06T08:18:34;3.17;;;1.58;;
30872;SDS011;17579;42.690;2.586;2023-08-06T08:21:20;2.63;;;1.85;;
30872;SDS011;17579;42.690;2.586;2023-08-06T08:23:46;4.22;;;1.88;;
30872;SDS011;17579;42.690;2.586;2023-08-06T08:26:17;4.30;;;1.90;;
30872;SDS011;17579;42.690;2.586;2023-08-06T08:28:45;4.25;;;2.10;;
30872;SDS011;17579;42.690;2.586;2023-08-06T08:31:11;4.03;;;1.98;;
30872;SDS011;17579;42.690;2.586;2023-08-06T08:33:37;5.75;;;2.13;;
30872;SDS011;17579;42.690;2.586;2023-08-06T08:36:06;2.88;;;1.75;;
30872;SDS011;17579;42.690;2.586;2023-08-06T08:38:31;3.47;;;2.20;;
30872;SDS011;17579;42.690;2.586;2023-08-06T08:41:06;4.03;;;2.15;;
30872;SDS011;17579;42.690;2.586;2023-08-06T08:43:37;5.13;;;1.88;;
30872;SDS011;17579;42.690;2.586;2023-08-06T08:46:09;4.18;;;1.83;;
30872;SDS011;17579;42.690;2.586;2023-08-06T08:48:42;5.03;;;2.00;;
30872;SDS011;17579;42.690;2.586;2023-08-06T08:51:12;4.05;;;1.95;;
30872;SDS011;17579;42.690;2.586;2023-08-06T08:54:03;2.80;;;1.92;;
30872;SDS011;17579;42.690;2.586;2023-08-06T08:56:31;4.57;;;1.70;;
30872;SDS011;17579;42.690;2.586;2023-08-06T08:59:03;4.97;;;1.73;;
30872;SDS011;17579;42.690;2.586;2023-08-06T09:02:00;4.28;;;1.73;;
30872;SDS011;17579;42.690;2.586;2023-08-06T09:04:27;4.10;;;1.65;;
30872;SDS011;17579;42.690;2.586;2023-08-06T09:07:02;3.28;;;1.70;;
30872;SDS011;17579;42.690;2.586;2023-08-06T09:09:33;3.15;;;1.60;;
30872;SDS011;17579;42.690;2.586;2023-08-06T09:12:05;4.38;;;1.90;;
30872;SDS011;17579;42.690;2.586;2023-08-06T09:14:39;3.38;;;1.70;;
30872;SDS011;17579;42.690;2.586;2023-08-06T09:17:15;2.63;;;1.58;;
30872;SDS011;17579;42.690;2.586;2023-08-06T09:19:46;4.22;;;1.58;;
30872;SDS011;17579;42.690;2.586;2023-08-06T09:22:13;4.75;;;1.70;;
30872;SDS011;17579;42.690;2.586;2023-08-06T09:24:51;4.45;;;1.85;;
30872;SDS011;17579;42.690;2.586;2023-08-06T09:27:36;2.53;;;1.58;;
30872;SDS011;17579;42.690;2.586;2023-08-06T09:30:06;3.92;;;1.48;;
30872;SDS011;17579;42.690;2.586;2023-08-06T09:37:46;2.83;;;1.40;;
30872;SDS011;17579;42.690;2.586;2023-08-06T09:40:23;3.15;;;1.48;;
30872;SDS011;17579;42.690;2.586;2023-08-06T09:42:53;4.85;;;1.83;;
30872;SDS011;17579;42.690;2.586;2023-08-06T09:45:20;3.72;;;1.77;;
30872;SDS011;17579;42.690;2.586;2023-08-06T09:47:59;2.00;;;1.40;;
30872;SDS011;17579;42.690;2.586;2023-08-06T09:50:28;4.75;;;2.08;;
30872;SDS011;17579;42.690;2.586;2023-08-06T09:52:57;3.25;;;1.60;;
30872;SDS011;17579;42.690;2.586;2023-08-06T09:55:24;4.10;;;1.75;;
30872;SDS011;17579;42.690;2.586;2023-08-06T09:57:54;3.83;;;1.88;;
30872;SDS011;17579;42.690;2.586;2023-08-06T10:03:15;3.78;;;2.08;;
30872;SDS011;17579;42.690;2.586;2023-08-06T10:05:52;3.25;;;1.52;;
30872;SDS011;17579;42.690;2.586;2023-08-06T10:08:38;8.68;;;2.30;;
30872;SDS011;17579;42.690;2.586;2023-08-06T10:11:06;4.28;;;1.83;;
30872;SDS011;17579;42.690;2.586;2023-08-06T10:13:37;6.28;;;2.10;;
30872;SDS011;17579;42.690;2.586;2023-08-06T10:16:03;3.65;;;1.60;;
30872;SDS011;17579;42.690;2.586;2023-08-06T10:18:30;7.07;;;2.25;;
30872;SDS011;17579;42.690;2.586;2023-08-06T10:20:58;3.92;;;1.80;;
30872;SDS011;17579;42.690;2.586;2023-08-06T10:26:17;10.43;;;2.05;;
30872;SDS011;17579;42.690;2.586;2023-08-06T10:28:42;2.47;;;1.60;;
30872;SDS011;17579;42.690;2.586;2023-08-06T10:31:52;4.65;;;2.20;;
30872;SDS011;17579;42.690;2.586;2023-08-06T10:34:09;6.20;;;1.73;;
30872;SDS011;17579;42.690;2.586;2023-08-06T10:36:35;4.30;;;1.80;;
30872;SDS011;17579;42.690;2.586;2023-08-06T10:39:01;3.28;;;1.60;;
30872;SDS011;17579;42.690;2.586;2023-08-06T10:41:29;5.40;;;2.03;;
30872;SDS011;17579;42.690;2.586;2023-08-06T10:46:43;4.90;;;1.75;;
30872;SDS011;17579;42.690;2.586;2023-08-06T10:49:17;3.15;;;1.80;;
30872;SDS011;17579;42.690;2.586;2023-08-06T10:51:44;5.40;;;2.05;;
30872;SDS011;17579;42.690;2.586;2023-08-06T10:54:09;5.00;;;1.75;;
30872;SDS011;17579;42.690;2.586;2023-08-06T10:56:41;4.38;;;1.70;;
30872;SDS011;17579;42.690;2.586;2023-08-06T10:59:14;4.63;;;2.08;;
30872;SDS011;17579;42.690;2.586;2023-08-06T11:01:40;2.83;;;1.73;;
30872;SDS011;17579;42.690;2.586;2023-08-06T11:04:11;3.78;;;1.63;;
30872;SDS011;17579;42.690;2.586;2023-08-06T11:06:44;4.18;;;1.55;;
30872;SDS011;17579;42.690;2.586;2023-08-06T11:09:18;5.35;;;2.40;;
30872;SDS011;17579;42.690;2.586;2023-08-06T11:11:43;2.83;;;1.67;;
30872;SDS011;17579;42.690;2.586;2023-08-06T11:16:46;3.50;;;1.73;;
30872;SDS011;17579;42.690;2.586;2023-08-06T11:19:12;1.67;;;1.30;;
30872;SDS011;17579;42.690;2.586;2023-08-06T11:21:40;4.45;;;1.70;;
30872;SDS011;17579;42.690;2.586;2023-08-06T11:24:16;3.67;;;2.05;;
30872;SDS011;17579;42.690;2.586;2023-08-06T11:26:44;4.05;;;1.85;;
30872;SDS011;17579;42.690;2.586;2023-08-06T11:29:10;3.53;;;1.88;;
30872;SDS011;17579;42.690;2.586;2023-08-06T11:31:36;3.03;;;1.70;;
30872;SDS011;17579;42.690;2.586;2023-08-06T11:34:06;3.35;;;1.85;;
30872;SDS011;17579;42.690;2.586;2023-08-06T11:36:33;3.25;;;2.10;;
30872;SDS011;17579;42.690;2.586;2023-08-06T11:39:03;3.97;;;1.80;;
30872;SDS011;17579;42.690;2.586;2023-08-06T11:41:33;5.10;;;1.95;;
30872;SDS011;17579;42.690;2.586;2023-08-06T11:44:03;4.05;;;1.80;;
30872;SDS011;17579;42.690;2.586;2023-08-06T11:46:29;5.15;;;1.70;;
30872;SDS011;17579;42.690;2.586;2023-08-06T11:57:34;4.43;;;2.10;;
30872;SDS011;17579;42.690;2.586;2023-08-06T12:00:03;4.25;;;1.83;;
30872;SDS011;17579;42.690;2.586;2023-08-06T12:02:43;3.88;;;1.98;;
30872;SDS011;17579;42.690;2.586;2023-08-06T12:05:23;3.53;;;1.60;;
30872;SDS011;17579;42.690;2.586;2023-08-06T12:07:55;6.63;;;1.90;;
30872;SDS011;17579;42.690;2.586;2023-08-06T12:10:30;4.07;;;2.15;;
30872;SDS011;17579;42.690;2.586;2023-08-06T12:12:59;4.10;;;2.00;;
30872;SDS011;17579;42.690;2.586;2023-08-06T12:15:25;4.70;;;2.05;;
30872;SDS011;17579;42.690;2.586;2023-08-06T12:18:14;4.43;;;1.88;;
30872;SDS011;17579;42.690;2.586;2023-08-06T12:20:57;4.68;;;2.15;;
30872;SDS011;17579;42.690;2.586;2023-08-06T12:23:23;4.90;;;2.20;;
30872;SDS011;17579;42.690;2.586;2023-08-06T12:26:12;4.80;;;1.77;;
30872;SDS011;17579;42.690;2.586;2023-08-06T12:28:38;9.82;;;2.17;;
30872;SDS011;17579;42.690;2.586;2023-08-06T12:31:06;4.28;;;1.88;;
30872;SDS011;17579;42.690;2.586;2023-08-06T12:33:43;4.80;;;2.00;;
30872;SDS011;17579;42.690;2.586;2023-08-06T12:36:09;5.85;;;2.03;;
30872;SDS011;17579;42.690;2.586;2023-08-06T12:38:35;4.07;;;1.73;;
30872;SDS011;17579;42.690;2.586;2023-08-06T12:41:03;3.95;;;1.85;;
30872;SDS011;17579;42.690;2.586;2023-08-06T12:43:35;5.57;;;2.30;;
30872;SDS011;17579;42.690;2.586;2023-08-06T12:46:00;2.80;;;1.83;;
30872;SDS011;17579;42.690;2.586;2023-08-06T12:48:29;5.07;;;2.25;;
30872;SDS011;17579;42.690;2.586;2023-08-06T12:50:55;8.52;;;2.10;;
30872;SDS011;17579;42.690;2.586;2023-08-06T12:53:20;6.55;;;2.85;;
30872;SDS011;17579;42.690;2.586;2023-08-06T12:55:50;6.38;;;2.20;;
30872;SDS011;17579;42.690;2.586;2023-08-06T12:58:16;3.97;;;2.42;;
30872;SDS011;17579;42.690;2.586;2023-08-06T13:00:41;5.32;;;2.08;;
30872;SDS011;17579;42.690;2.586;2023-08-06T13:03:07;3.95;;;2.03;;
30872;SDS011;17579;42.690;2.586;2023-08-06T13:05:33;4.85;;;2.13;;
30872;SDS011;17579;42.690;2.586;2023-08-06T13:08:02;5.72;;;2.00;;
30872;SDS011;17579;42.690;2.586;2023-08-06T13:10:50;5.70;;;2.00;;
30872;SDS011;17579;42.690;2.586;2023-08-06T13:13:19;7.72;;;1.92;;
30872;SDS011;17579;42.690;2.586;2023-08-06T13:15:52;5.30;;;2.15;;
30872;SDS011;17579;42.690;2.586;2023-08-06T13:18:20;5.72;;;2.15;;
30872;SDS011;17579;42.690;2.586;2023-08-06T13:20:45;3.42;;;1.90;;
30872;SDS011;17579;42.690;2.586;2023-08-06T13:23:17;3.67;;;2.05;;
30872;SDS011;17579;42.690;2.586;2023-08-06T13:25:45;7.38;;;1.98;;
30872;SDS011;17579;42.690;2.586;2023-08-06T13:28:11;5.55;;;2.03;;
30872;SDS011;17579;42.690;2.586;2023-08-06T13:33:26;13.40;;;2.30;;
30872;SDS011;17579;42.690;2.586;2023-08-06T13:35:52;4.88;;;1.80;;
30872;SDS011;17579;42.690;2.586;2023-08-06T13:38:17;6.35;;;2.47;;
30872;SDS011;17579;42.690;2.586;2023-08-06T13:41:01;3.75;;;2.00;;
30872;SDS011;17579;42.690;2.586;2023-08-06T13:43:36;6.90;;;2.40;;
30872;SDS011;17579;42.690;2.586;2023-08-06T13:46:05;7.93;;;2.25;;
30872;SDS011;17579;42.690;2.586;2023-08-06T13:48:30;5.45;;;1.95;;
30872;SDS011;17579;42.690;2.586;2023-08-06T13:50:56;5.63;;;2.67;;
30872;SDS011;17579;42.690;2.586;2023-08-06T13:53:22;5.20;;;2.00;;
30872;SDS011;17579;42.690;2.586;2023-08-06T13:55:56;3.40;;;2.05;;
30872;SDS011;17579;42.690;2.586;2023-08-06T13:58:23;2.88;;;1.83;;
30872;SDS011;17579;42.690;2.586;2023-08-06T14:00:50;6.13;;;2.28;;
30872;SDS011;17579;42.690;2.586;2023-08-06T14:03:20;5.68;;;2.05;;
30872;SDS011;17579;42.690;2.586;2023-08-06T14:05:46;5.00;;;2.40;;
30872;SDS011;17579;42.690;2.586;2023-08-06T14:08:14;5.15;;;2.20;;
30872;SDS011;17579;42.690;2.586;2023-08-06T14:10:44;3.75;;;2.05;;
30872;SDS011;17579;42.690;2.586;2023-08-06T14:13:10;3.42;;;2.08;;
30872;SDS011;17579;42.690;2.586;2023-08-06T14:15:41;4.95;;;2.08;;
30872;SDS011;17579;42.690;2.586;2023-08-06T14:18:11;4.30;;;2.17;;
30872;SDS011;17579;42.690;2.586;2023-08-06T14:20:46;6.47;;;2.10;;
30872;SDS011;17579;42.690;2.586;2023-08-06T14:23:15;4.65;;;2.10;;
30872;SDS011;17579;42.690;2.586;2023-08-06T14:25:50;5.30;;;1.92;;
30872;SDS011;17579;42.690;2.586;2023-08-06T14:31:04;4.80;;;2.22;;
30872;SDS011;17579;42.690;2.586;2023-08-06T14:33:30;4.75;;;2.10;;
30872;SDS011;17579;42.690;2.586;2023-08-06T14:35:58;8.68;;;2.03;;
30872;SDS011;17579;42.690;2.586;2023-08-06T14:38:33;5.32;;;1.98;;
30872;SDS011;17579;42.690;2.586;2023-08-06T14:41:01;4.68;;;1.80;;
30872;SDS011;17579;42.690;2.586;2023-08-06T14:43:27;3.78;;;2.20;;
30872;SDS011;17579;42.690;2.586;2023-08-06T14:45:52;3.65;;;2.20;;
30872;SDS011;17579;42.690;2.586;2023-08-06T14:48:34;3.33;;;1.88;;
30872;SDS011;17579;42.690;2.586;2023-08-06T14:50:59;4.40;;;1.92;;
30872;SDS011;17579;42.690;2.586;2023-08-06T14:53:28;4.85;;;2.20;;
30872;SDS011;17579;42.690;2.586;2023-08-06T14:55:56;4.55;;;1.60;;
30872;SDS011;17579;42.690;2.586;2023-08-06T14:58:22;4.57;;;2.08;;
30872;SDS011;17579;42.690;2.586;2023-08-06T15:00:48;6.97;;;2.35;;
30872;SDS011;17579;42.690;2.586;2023-08-06T15:03:19;3.63;;;1.65;;
30872;SDS011;17579;42.690;2.586;2023-08-06T15:08:12;4.25;;;1.90;;
30872;SDS011;17579;42.690;2.586;2023-08-06T15:10:38;3.70;;;1.85;;
30872;SDS011;17579;42.690;2.586;2023-08-06T15:13:04;5.22;;;1.70;;
30872;SDS011;17579;42.690;2.586;2023-08-06T15:15:59;6.55;;;1.77;;
30872;SDS011;17579;42.690;2.586;2023-08-06T15:18:33;2.67;;;1.65;;
30872;SDS011;17579;42.690;2.586;2023-08-06T15:21:02;3.53;;;1.70;;
30872;SDS011;17579;42.690;2.586;2023-08-06T15:23:28;3.50;;;2.00;;
30872;SDS011;17579;42.690;2.586;2023-08-06T15:25:59;4.55;;;1.98;;
30872;SDS011;17579;42.690;2.586;2023-08-06T15:28:25;6.38;;;2.13;;
30872;SDS011;17579;42.690;2.586;2023-08-06T15:30:52;3.40;;;1.83;;
30872;SDS011;17579;42.690;2.586;2023-08-06T15:33:22;5.47;;;1.80;;
30872;SDS011;17579;42.690;2.586;2023-08-06T15:36:02;5.15;;;2.05;;
30872;SDS011;17579;42.690;2.586;2023-08-06T15:38:28;4.65;;;2.28;;
30872;SDS011;17579;42.690;2.586;2023-08-06T15:40:54;5.68;;;1.90;;
30872;SDS011;17579;42.690;2.586;2023-08-06T15:43:22;5.18;;;2.40;;
30872;SDS011;17579;42.690;2.586;2023-08-06T15:45:48;3.97;;;1.83;;
30872;SDS011;17579;42.690;2.586;2023-08-06T15:48:14;3.45;;;1.73;;
30872;SDS011;17579;42.690;2.586;2023-08-06T15:50:40;4.15;;;1.52;;
30872;SDS011;17579;42.690;2.586;2023-08-06T15:53:28;4.32;;;2.33;;